sensor_id;sensor_type;location;lat;lon;timestamp;P1;durP1;ratioP1;P2;durP2;ratioP2
46308;SDS011;32037;50.820;6.494;2022-08-19T00:01:55;6.10;;;5.60;;
46308;SDS011;32037;50.820;6.494;2022-08-19T00:04:26;5.33;;;4.87;;
46308;SDS011;32037;50.820;6.494;2022-08-19T00:06:59;6.20;;;5.80;;
46308;SDS011;32037;50.820;6.494;2022-08-19T00:09:27;5.30;;;4.90;;
46308;SDS011;32037;50.820;6.494;2022-08-19T00:11:57;5.07;;;4.67;;
46308;SDS011;32037;50.820;6.494;2022-08-19T00:14:27;5.53;;;5.13;;
46308;SDS011;32037;50.820;6.494;2022-08-19T00:16:58;5.77;;;5.27;;
46308;SDS011;32037;50.820;6.494;2022-08-19T00:19:27;5.13;;;4.73;;
46308;SDS011;32037;50.820;6.494;2022-08-19T00:21:56;5.53;;;5.03;;
46308;SDS011;32037;50.820;6.494;2022-08-19T00:24:26;5.63;;;5.23;;
46308;SDS011;32037;50.820;6.494;2022-08-19T00:26:55;5.70;;;5.30;;
46308;SDS011;32037;50.820;6.494;2022-08-19T00:29:44;5.67;;;5.17;;
46308;SDS011;32037;50.820;6.494;2022-08-19T00:32:18;6.20;;;5.60;;
46308;SDS011;32037;50.820;6.494;2022-08-19T00:34:47;6.20;;;5.70;;
46308;SDS011;32037;50.820;6.494;2022-08-19T00:37:15;5.30;;;4.90;;
46308;SDS011;32037;50.820;6.494;2022-08-19T00:39:45;5.23;;;4.83;;
46308;SDS011;32037;50.820;6.494;2022-08-19T00:42:14;5.60;;;5.20;;
46308;SDS011;32037;50.820;6.494;2022-08-19T00:44:43;5.90;;;5.50;;
46308;SDS011;32037;50.820;6.494;2022-08-19T00:47:11;5.40;;;5.03;;
46308;SDS011;32037;50.820;6.494;2022-08-19T00:49:43;5.60;;;5.20;;
46308;SDS011;32037;50.820;6.494;2022-08-19T00:52:19;5.00;;;4.60;;
46308;SDS011;32037;50.820;6.494;2022-08-19T00:54:51;6.10;;;5.63;;
46308;SDS011;32037;50.820;6.494;2022-08-19T00:57:22;5.77;;;5.27;;
46308;SDS011;32037;50.820;6.494;2022-08-19T00:59:56;5.80;;;5.40;;
46308;SDS011;32037;50.820;6.494;2022-08-19T01:02:29;6.23;;;5.73;;
46308;SDS011;32037;50.820;6.494;2022-08-19T01:04:59;5.77;;;5.37;;
46308;SDS011;32037;50.820;6.494;2022-08-19T01:07:29;5.50;;;5.10;;
46308;SDS011;32037;50.820;6.494;2022-08-19T01:10:05;5.70;;;5.30;;
46308;SDS011;32037;50.820;6.494;2022-08-19T01:12:36;5.50;;;5.10;;
46308;SDS011;32037;50.820;6.494;2022-08-19T01:15:07;5.90;;;5.40;;
46308;SDS011;32037;50.820;6.494;2022-08-19T01:17:38;5.47;;;5.07;;
46308;SDS011;32037;50.820;6.494;2022-08-19T01:20:09;5.97;;;5.47;;
46308;SDS011;32037;50.820;6.494;2022-08-19T01:22:42;6.17;;;5.67;;
46308;SDS011;32037;50.820;6.494;2022-08-19T01:25:12;6.00;;;5.50;;
46308;SDS011;32037;50.820;6.494;2022-08-19T01:27:43;5.80;;;5.30;;
46308;SDS011;32037;50.820;6.494;2022-08-19T01:30:15;6.00;;;5.60;;
46308;SDS011;32037;50.820;6.494;2022-08-19T01:32:46;5.70;;;5.10;;
46308;SDS011;32037;50.820;6.494;2022-08-19T01:35:15;7.43;;;6.93;;
46308;SDS011;32037;50.820;6.494;2022-08-19T01:37:47;5.47;;;5.07;;
46308;SDS011;32037;50.820;6.494;2022-08-19T01:40:18;6.27;;;5.70;;
46308;SDS011;32037;50.820;6.494;2022-08-19T01:42:47;6.10;;;5.37;;
46308;SDS011;32037;50.820;6.494;2022-08-19T01:45:16;6.53;;;6.10;;
46308;SDS011;32037;50.820;6.494;2022-08-19T01:47:45;6.77;;;5.23;;
46308;SDS011;32037;50.820;6.494;2022-08-19T01:50:27;5.50;;;5.10;;
46308;SDS011;32037;50.820;6.494;2022-08-19T01:52:58;6.00;;;5.50;;
46308;SDS011;32037;50.820;6.494;2022-08-19T01:55:33;5.77;;;5.27;;
46308;SDS011;32037;50.820;6.494;2022-08-19T01:58:06;5.80;;;5.40;;
46308;SDS011;32037;50.820;6.494;2022-08-19T02:00:37;6.10;;;5.70;;
46308;SDS011;32037;50.820;6.494;2022-08-19T02:03:06;6.20;;;5.70;;
46308;SDS011;32037;50.820;6.494;2022-08-19T02:05:37;6.27;;;5.77;;
46308;SDS011;32037;50.820;6.494;2022-08-19T02:08:07;5.93;;;5.53;;
46308;SDS011;32037;50.820;6.494;2022-08-19T02:10:38;9.17;;;5.70;;
46308;SDS011;32037;50.820;6.494;2022-08-19T02:13:08;5.90;;;5.50;;
46308;SDS011;32037;50.820;6.494;2022-08-19T02:15:37;6.23;;;5.80;;
46308;SDS011;32037;50.820;6.494;2022-08-19T02:18:06;6.20;;;5.80;;
46308;SDS011;32037;50.820;6.494;2022-08-19T02:20:35;6.47;;;6.07;;
46308;SDS011;32037;50.820;6.494;2022-08-19T02:23:05;5.57;;;5.17;;
46308;SDS011;32037;50.820;6.494;2022-08-19T02:25:43;5.83;;;5.43;;
46308;SDS011;32037;50.820;6.494;2022-08-19T02:28:12;5.80;;;5.40;;
46308;SDS011;32037;50.820;6.494;2022-08-19T02:30:44;6.30;;;5.80;;
46308;SDS011;32037;50.820;6.494;2022-08-19T02:33:14;6.03;;;5.47;;
46308;SDS011;32037;50.820;6.494;2022-08-19T02:35:44;5.70;;;5.30;;
46308;SDS011;32037;50.820;6.494;2022-08-19T02:38:14;6.13;;;5.63;;
46308;SDS011;32037;50.820;6.494;2022-08-19T02:40:57;5.80;;;5.40;;
46308;SDS011;32037;50.820;6.494;2022-08-19T02:43:28;5.40;;;5.00;;
46308;SDS011;32037;50.820;6.494;2022-08-19T02:46:00;6.23;;;5.80;;
46308;SDS011;32037;50.820;6.494;2022-08-19T02:48:29;5.70;;;5.30;;
46308;SDS011;32037;50.820;6.494;2022-08-19T02:50:59;5.90;;;5.40;;
46308;SDS011;32037;50.820;6.494;2022-08-19T02:53:27;5.17;;;4.77;;
46308;SDS011;32037;50.820;6.494;2022-08-19T02:55:57;5.67;;;5.27;;
46308;SDS011;32037;50.820;6.494;2022-08-19T02:58:26;5.97;;;5.57;;
46308;SDS011;32037;50.820;6.494;2022-08-19T03:00:56;5.77;;;5.37;;
46308;SDS011;32037;50.820;6.494;2022-08-19T03:03:25;5.67;;;5.27;;
46308;SDS011;32037;50.820;6.494;2022-08-19T03:06:02;6.50;;;5.90;;
46308;SDS011;32037;50.820;6.494;2022-08-19T03:08:32;6.60;;;6.10;;
46308;SDS011;32037;50.820;6.494;2022-08-19T03:11:02;5.67;;;5.27;;
46308;SDS011;32037;50.820;6.494;2022-08-19T03:13:31;5.87;;;5.47;;
46308;SDS011;32037;50.820;6.494;2022-08-19T03:16:00;6.67;;;6.17;;
46308;SDS011;32037;50.820;6.494;2022-08-19T03:18:32;5.27;;;4.93;;
46308;SDS011;32037;50.820;6.494;2022-08-19T03:21:00;5.63;;;5.23;;
46308;SDS011;32037;50.820;6.494;2022-08-19T03:23:29;5.43;;;5.13;;
46308;SDS011;32037;50.820;6.494;2022-08-19T03:25:57;6.13;;;5.57;;
46308;SDS011;32037;50.820;6.494;2022-08-19T03:28:43;5.03;;;4.70;;
46308;SDS011;32037;50.820;6.494;2022-08-19T03:31:24;6.27;;;5.80;;
46308;SDS011;32037;50.820;6.494;2022-08-19T03:34:15;6.13;;;5.73;;
46308;SDS011;32037;50.820;6.494;2022-08-19T03:36:46;6.20;;;5.70;;
46308;SDS011;32037;50.820;6.494;2022-08-19T03:39:15;7.60;;;7.10;;
46308;SDS011;32037;50.820;6.494;2022-08-19T03:41:44;7.83;;;7.23;;
46308;SDS011;32037;50.820;6.494;2022-08-19T03:44:36;6.30;;;5.90;;
46308;SDS011;32037;50.820;6.494;2022-08-19T03:47:05;6.90;;;6.30;;
46308;SDS011;32037;50.820;6.494;2022-08-19T03:49:34;6.20;;;5.80;;
46308;SDS011;32037;50.820;6.494;2022-08-19T03:52:03;6.90;;;6.40;;
46308;SDS011;32037;50.820;6.494;2022-08-19T03:54:34;6.50;;;6.00;;
46308;SDS011;32037;50.820;6.494;2022-08-19T03:57:04;6.53;;;6.00;;
46308;SDS011;32037;50.820;6.494;2022-08-19T03:59:34;5.90;;;5.50;;
46308;SDS011;32037;50.820;6.494;2022-08-19T04:02:07;6.57;;;5.97;;
46308;SDS011;32037;50.820;6.494;2022-08-19T04:04:38;6.03;;;5.63;;
46308;SDS011;32037;50.820;6.494;2022-08-19T04:07:08;6.60;;;6.07;;
46308;SDS011;32037;50.820;6.494;2022-08-19T04:09:38;6.30;;;5.90;;
46308;SDS011;32037;50.820;6.494;2022-08-19T04:12:06;6.63;;;6.13;;
46308;SDS011;32037;50.820;6.494;2022-08-19T04:14:35;7.00;;;6.50;;
46308;SDS011;32037;50.820;6.494;2022-08-19T04:17:05;7.53;;;6.93;;
46308;SDS011;32037;50.820;6.494;2022-08-19T04:19:34;5.80;;;5.40;;
46308;SDS011;32037;50.820;6.494;2022-08-19T04:22:03;8.30;;;7.50;;
46308;SDS011;32037;50.820;6.494;2022-08-19T04:24:33;6.20;;;5.70;;
46308;SDS011;32037;50.820;6.494;2022-08-19T04:27:03;6.70;;;6.20;;
46308;SDS011;32037;50.820;6.494;2022-08-19T04:29:32;7.33;;;6.83;;
46308;SDS011;32037;50.820;6.494;2022-08-19T04:32:01;6.73;;;6.23;;
46308;SDS011;32037;50.820;6.494;2022-08-19T04:34:37;6.50;;;6.00;;
46308;SDS011;32037;50.820;6.494;2022-08-19T04:37:26;5.20;;;4.80;;
46308;SDS011;32037;50.820;6.494;2022-08-19T04:40:02;6.20;;;5.80;;
46308;SDS011;32037;50.820;6.494;2022-08-19T04:42:49;6.30;;;5.87;;
46308;SDS011;32037;50.820;6.494;2022-08-19T04:45:18;7.30;;;6.70;;
46308;SDS011;32037;50.820;6.494;2022-08-19T04:47:48;6.20;;;5.80;;
46308;SDS011;32037;50.820;6.494;2022-08-19T04:50:26;7.20;;;6.70;;
46308;SDS011;32037;50.820;6.494;2022-08-19T04:52:55;7.53;;;6.90;;
46308;SDS011;32037;50.820;6.494;2022-08-19T04:55:23;7.93;;;7.23;;
46308;SDS011;32037;50.820;6.494;2022-08-19T04:57:53;7.07;;;6.47;;
46308;SDS011;32037;50.820;6.494;2022-08-19T05:00:22;6.80;;;6.30;;
46308;SDS011;32037;50.820;6.494;2022-08-19T05:02:50;7.07;;;6.57;;
46308;SDS011;32037;50.820;6.494;2022-08-19T05:05:19;8.43;;;7.83;;
46308;SDS011;32037;50.820;6.494;2022-08-19T05:07:49;8.73;;;8.13;;
46308;SDS011;32037;50.820;6.494;2022-08-19T05:10:17;8.17;;;7.47;;
46308;SDS011;32037;50.820;6.494;2022-08-19T05:12:47;8.80;;;8.00;;
46308;SDS011;32037;50.820;6.494;2022-08-19T05:15:15;7.73;;;7.13;;
46308;SDS011;32037;50.820;6.494;2022-08-19T05:17:45;7.23;;;6.70;;
46308;SDS011;32037;50.820;6.494;2022-08-19T05:20:27;9.00;;;8.30;;
46308;SDS011;32037;50.820;6.494;2022-08-19T05:23:15;7.50;;;6.90;;
46308;SDS011;32037;50.820;6.494;2022-08-19T05:25:48;9.37;;;8.67;;
46308;SDS011;32037;50.820;6.494;2022-08-19T05:28:18;10.00;;;9.10;;
46308;SDS011;32037;50.820;6.494;2022-08-19T05:30:47;10.10;;;9.10;;
46308;SDS011;32037;50.820;6.494;2022-08-19T05:33:17;9.03;;;8.13;;
46308;SDS011;32037;50.820;6.494;2022-08-19T05:35:46;11.70;;;10.20;;
46308;SDS011;32037;50.820;6.494;2022-08-19T05:38:17;9.10;;;8.23;;
46308;SDS011;32037;50.820;6.494;2022-08-19T05:40:46;8.30;;;7.70;;
46308;SDS011;32037;50.820;6.494;2022-08-19T05:43:15;10.20;;;9.20;;
46308;SDS011;32037;50.820;6.494;2022-08-19T05:45:44;9.93;;;9.13;;
46308;SDS011;32037;50.820;6.494;2022-08-19T05:48:13;9.80;;;9.00;;
46308;SDS011;32037;50.820;6.494;2022-08-19T05:50:47;10.57;;;9.67;;
46308;SDS011;32037;50.820;6.494;2022-08-19T05:53:18;11.40;;;10.03;;
46308;SDS011;32037;50.820;6.494;2022-08-19T05:55:46;9.00;;;8.30;;
46308;SDS011;32037;50.820;6.494;2022-08-19T05:58:15;8.83;;;7.97;;
46308;SDS011;32037;50.820;6.494;2022-08-19T06:00:48;10.90;;;8.00;;
46308;SDS011;32037;50.820;6.494;2022-08-19T06:03:17;11.10;;;10.00;;
46308;SDS011;32037;50.820;6.494;2022-08-19T06:05:45;9.17;;;8.37;;
46308;SDS011;32037;50.820;6.494;2022-08-19T06:08:19;10.27;;;9.37;;
46308;SDS011;32037;50.820;6.494;2022-08-19T06:11:11;10.43;;;9.27;;
46308;SDS011;32037;50.820;6.494;2022-08-19T06:13:41;8.97;;;8.27;;
46308;SDS011;32037;50.820;6.494;2022-08-19T06:16:11;11.03;;;10.03;;
46308;SDS011;32037;50.820;6.494;2022-08-19T06:18:40;9.77;;;8.90;;
46308;SDS011;32037;50.820;6.494;2022-08-19T06:21:10;9.20;;;8.40;;
46308;SDS011;32037;50.820;6.494;2022-08-19T06:23:40;10.83;;;9.93;;
46308;SDS011;32037;50.820;6.494;2022-08-19T06:26:11;10.00;;;9.10;;
46308;SDS011;32037;50.820;6.494;2022-08-19T06:28:40;14.97;;;11.83;;
46308;SDS011;32037;50.820;6.494;2022-08-19T06:31:13;11.17;;;10.17;;
46308;SDS011;32037;50.820;6.494;2022-08-19T06:33:43;11.23;;;10.23;;
46308;SDS011;32037;50.820;6.494;2022-08-19T06:36:16;11.33;;;10.23;;
46308;SDS011;32037;50.820;6.494;2022-08-19T06:38:52;10.20;;;9.30;;
46308;SDS011;32037;50.820;6.494;2022-08-19T06:41:20;11.20;;;10.07;;
46308;SDS011;32037;50.820;6.494;2022-08-19T06:43:49;9.70;;;8.80;;
46308;SDS011;32037;50.820;6.494;2022-08-19T06:46:22;9.10;;;8.30;;
46308;SDS011;32037;50.820;6.494;2022-08-19T06:48:54;9.30;;;8.40;;
46308;SDS011;32037;50.820;6.494;2022-08-19T06:51:23;12.20;;;10.90;;
46308;SDS011;32037;50.820;6.494;2022-08-19T06:53:57;12.50;;;11.40;;
46308;SDS011;32037;50.820;6.494;2022-08-19T06:56:26;12.10;;;10.90;;
46308;SDS011;32037;50.820;6.494;2022-08-19T06:59:00;10.77;;;9.73;;
46308;SDS011;32037;50.820;6.494;2022-08-19T07:01:31;11.10;;;10.10;;
46308;SDS011;32037;50.820;6.494;2022-08-19T07:04:04;15.33;;;12.20;;
46308;SDS011;32037;50.820;6.494;2022-08-19T07:06:37;13.37;;;12.07;;
46308;SDS011;32037;50.820;6.494;2022-08-19T07:09:12;12.27;;;10.97;;
46308;SDS011;32037;50.820;6.494;2022-08-19T07:11:45;14.37;;;12.97;;
46308;SDS011;32037;50.820;6.494;2022-08-19T07:14:15;16.53;;;14.87;;
46308;SDS011;32037;50.820;6.494;2022-08-19T07:16:46;20.73;;;18.50;;
46308;SDS011;32037;50.820;6.494;2022-08-19T07:19:17;20.87;;;18.77;;
46308;SDS011;32037;50.820;6.494;2022-08-19T07:21:47;24.37;;;21.73;;
46308;SDS011;32037;50.820;6.494;2022-08-19T07:24:19;25.00;;;22.27;;
46308;SDS011;32037;50.820;6.494;2022-08-19T07:26:50;22.77;;;20.20;;
46308;SDS011;32037;50.820;6.494;2022-08-19T07:29:21;20.90;;;18.80;;
46308;SDS011;32037;50.820;6.494;2022-08-19T07:31:53;26.30;;;23.60;;
46308;SDS011;32037;50.820;6.494;2022-08-19T07:34:26;24.30;;;21.70;;
46308;SDS011;32037;50.820;6.494;2022-08-19T07:36:56;22.03;;;19.73;;
46308;SDS011;32037;50.820;6.494;2022-08-19T07:39:28;25.77;;;21.80;;
46308;SDS011;32037;50.820;6.494;2022-08-19T07:41:59;19.97;;;18.00;;
46308;SDS011;32037;50.820;6.494;2022-08-19T07:44:30;20.57;;;18.40;;
46308;SDS011;32037;50.820;6.494;2022-08-19T07:47:01;20.53;;;18.00;;
46308;SDS011;32037;50.820;6.494;2022-08-19T07:49:30;20.70;;;16.43;;
46308;SDS011;32037;50.820;6.494;2022-08-19T07:52:00;18.40;;;16.60;;
46308;SDS011;32037;50.820;6.494;2022-08-19T07:54:32;16.93;;;15.40;;
46308;SDS011;32037;50.820;6.494;2022-08-19T07:57:04;14.93;;;13.53;;
46308;SDS011;32037;50.820;6.494;2022-08-19T07:59:33;13.50;;;12.30;;
46308;SDS011;32037;50.820;6.494;2022-08-19T08:02:02;13.93;;;12.53;;
46308;SDS011;32037;50.820;6.494;2022-08-19T08:04:32;12.80;;;11.60;;
46308;SDS011;32037;50.820;6.494;2022-08-19T08:07:20;11.87;;;10.77;;
46308;SDS011;32037;50.820;6.494;2022-08-19T08:10:13;10.90;;;9.77;;
46308;SDS011;32037;50.820;6.494;2022-08-19T08:12:47;10.10;;;9.23;;
46308;SDS011;32037;50.820;6.494;2022-08-19T08:15:36;10.57;;;9.47;;
46308;SDS011;32037;50.820;6.494;2022-08-19T08:18:09;11.83;;;10.47;;
46308;SDS011;32037;50.820;6.494;2022-08-19T08:20:40;13.77;;;10.43;;
46308;SDS011;32037;50.820;6.494;2022-08-19T08:23:08;9.23;;;8.33;;
46308;SDS011;32037;50.820;6.494;2022-08-19T08:25:54;12.50;;;11.20;;
46308;SDS011;32037;50.820;6.494;2022-08-19T08:28:24;10.37;;;9.37;;
46308;SDS011;32037;50.820;6.494;2022-08-19T08:30:55;10.53;;;9.53;;
46308;SDS011;32037;50.820;6.494;2022-08-19T08:33:25;11.03;;;10.03;;
46308;SDS011;32037;50.820;6.494;2022-08-19T08:36:01;13.03;;;11.50;;
46308;SDS011;32037;50.820;6.494;2022-08-19T08:38:32;16.13;;;12.53;;
46308;SDS011;32037;50.820;6.494;2022-08-19T08:41:09;13.40;;;11.10;;
46308;SDS011;32037;50.820;6.494;2022-08-19T08:43:46;11.70;;;10.60;;
46308;SDS011;32037;50.820;6.494;2022-08-19T08:46:19;12.10;;;10.90;;
46308;SDS011;32037;50.820;6.494;2022-08-19T08:49:01;12.23;;;10.97;;
46308;SDS011;32037;50.820;6.494;2022-08-19T08:51:39;12.93;;;9.73;;
46308;SDS011;32037;50.820;6.494;2022-08-19T08:54:14;12.07;;;10.87;;
46308;SDS011;32037;50.820;6.494;2022-08-19T08:56:47;10.70;;;9.20;;
46308;SDS011;32037;50.820;6.494;2022-08-19T08:59:20;12.80;;;11.50;;
46308;SDS011;32037;50.820;6.494;2022-08-19T09:01:53;11.50;;;10.40;;
46308;SDS011;32037;50.820;6.494;2022-08-19T09:04:22;10.53;;;9.50;;
46308;SDS011;32037;50.820;6.494;2022-08-19T09:06:52;10.13;;;8.90;;
46308;SDS011;32037;50.820;6.494;2022-08-19T09:09:28;12.20;;;10.47;;
46308;SDS011;32037;50.820;6.494;2022-08-19T09:12:05;12.67;;;11.37;;
46308;SDS011;32037;50.820;6.494;2022-08-19T09:14:45;14.80;;;11.17;;
46308;SDS011;32037;50.820;6.494;2022-08-19T09:17:18;13.67;;;12.37;;
46308;SDS011;32037;50.820;6.494;2022-08-19T09:19:59;13.47;;;10.90;;
46308;SDS011;32037;50.820;6.494;2022-08-19T09:22:34;12.33;;;11.17;;
46308;SDS011;32037;50.820;6.494;2022-08-19T09:25:04;13.73;;;11.63;;
46308;SDS011;32037;50.820;6.494;2022-08-19T09:27:36;13.53;;;12.23;;
46308;SDS011;32037;50.820;6.494;2022-08-19T09:30:20;13.97;;;12.67;;
46308;SDS011;32037;50.820;6.494;2022-08-19T09:32:51;13.37;;;11.90;;
46308;SDS011;32037;50.820;6.494;2022-08-19T09:35:26;14.57;;;13.17;;
46308;SDS011;32037;50.820;6.494;2022-08-19T09:37:57;16.50;;;13.30;;
46308;SDS011;32037;50.820;6.494;2022-08-19T09:40:28;16.13;;;13.80;;
46308;SDS011;32037;50.820;6.494;2022-08-19T09:43:05;15.60;;;14.03;;
46308;SDS011;32037;50.820;6.494;2022-08-19T09:45:39;17.50;;;14.67;;
46308;SDS011;32037;50.820;6.494;2022-08-19T09:48:08;14.87;;;13.37;;
46308;SDS011;32037;50.820;6.494;2022-08-19T09:50:37;14.50;;;13.10;;
46308;SDS011;32037;50.820;6.494;2022-08-19T09:53:17;13.03;;;11.83;;
46308;SDS011;32037;50.820;6.494;2022-08-19T09:55:54;12.50;;;11.47;;
46308;SDS011;32037;50.820;6.494;2022-08-19T09:58:25;12.67;;;11.47;;
46308;SDS011;32037;50.820;6.494;2022-08-19T10:00:54;12.93;;;11.73;;
46308;SDS011;32037;50.820;6.494;2022-08-19T10:03:24;13.00;;;11.80;;
46308;SDS011;32037;50.820;6.494;2022-08-19T10:05:56;12.50;;;11.50;;
46308;SDS011;32037;50.820;6.494;2022-08-19T10:08:28;13.00;;;11.73;;
46308;SDS011;32037;50.820;6.494;2022-08-19T10:10:58;11.70;;;10.70;;
46308;SDS011;32037;50.820;6.494;2022-08-19T10:13:49;11.30;;;10.20;;
46308;SDS011;32037;50.820;6.494;2022-08-19T10:16:20;12.77;;;11.67;;
46308;SDS011;32037;50.820;6.494;2022-08-19T10:18:56;13.63;;;12.43;;
46308;SDS011;32037;50.820;6.494;2022-08-19T10:21:25;11.40;;;10.40;;
46308;SDS011;32037;50.820;6.494;2022-08-19T10:23:58;14.40;;;13.10;;
46308;SDS011;32037;50.820;6.494;2022-08-19T10:26:31;12.50;;;11.40;;
46308;SDS011;32037;50.820;6.494;2022-08-19T10:29:05;12.83;;;11.73;;
46308;SDS011;32037;50.820;6.494;2022-08-19T10:31:35;13.10;;;11.90;;
46308;SDS011;32037;50.820;6.494;2022-08-19T10:34:23;14.03;;;12.70;;
46308;SDS011;32037;50.820;6.494;2022-08-19T10:36:54;13.67;;;12.37;;
46308;SDS011;32037;50.820;6.494;2022-08-19T10:39:27;11.93;;;10.93;;
46308;SDS011;32037;50.820;6.494;2022-08-19T10:41:59;14.00;;;12.77;;
46308;SDS011;32037;50.820;6.494;2022-08-19T10:44:33;15.23;;;13.73;;
46308;SDS011;32037;50.820;6.494;2022-08-19T10:47:03;13.77;;;12.57;;
46308;SDS011;32037;50.820;6.494;2022-08-19T10:49:50;13.87;;;12.57;;
46308;SDS011;32037;50.820;6.494;2022-08-19T10:52:38;13.33;;;12.17;;
46308;SDS011;32037;50.820;6.494;2022-08-19T10:55:16;12.83;;;11.70;;
46308;SDS011;32037;50.820;6.494;2022-08-19T10:58:04;13.33;;;12.00;;
46308;SDS011;32037;50.820;6.494;2022-08-19T11:00:40;12.80;;;11.60;;
46308;SDS011;32037;50.820;6.494;2022-08-19T11:03:10;12.97;;;11.90;;
46308;SDS011;32037;50.820;6.494;2022-08-19T11:05:38;13.77;;;12.57;;
46308;SDS011;32037;50.820;6.494;2022-08-19T11:08:07;14.23;;;12.80;;
46308;SDS011;32037;50.820;6.494;2022-08-19T11:10:50;14.07;;;12.80;;
46308;SDS011;32037;50.820;6.494;2022-08-19T11:13:25;12.40;;;11.20;;
46308;SDS011;32037;50.820;6.494;2022-08-19T11:16:00;13.73;;;12.53;;
46308;SDS011;32037;50.820;6.494;2022-08-19T11:18:34;12.83;;;11.73;;
46308;SDS011;32037;50.820;6.494;2022-08-19T11:21:12;14.40;;;13.20;;
46308;SDS011;32037;50.820;6.494;2022-08-19T11:23:43;13.87;;;12.67;;
46308;SDS011;32037;50.820;6.494;2022-08-19T11:26:13;15.53;;;13.97;;
46308;SDS011;32037;50.820;6.494;2022-08-19T11:28:42;15.30;;;13.70;;
46308;SDS011;32037;50.820;6.494;2022-08-19T11:31:14;17.30;;;15.60;;
46308;SDS011;32037;50.820;6.494;2022-08-19T11:33:44;16.27;;;14.23;;
46308;SDS011;32037;50.820;6.494;2022-08-19T11:36:14;18.00;;;16.30;;
46308;SDS011;32037;50.820;6.494;2022-08-19T11:38:44;16.77;;;15.07;;
46308;SDS011;32037;50.820;6.494;2022-08-19T11:41:15;16.53;;;15.03;;
46308;SDS011;32037;50.820;6.494;2022-08-19T11:43:46;17.00;;;15.27;;
46308;SDS011;32037;50.820;6.494;2022-08-19T11:46:16;16.07;;;14.47;;
46308;SDS011;32037;50.820;6.494;2022-08-19T11:48:46;14.37;;;12.90;;
46308;SDS011;32037;50.820;6.494;2022-08-19T11:51:16;16.57;;;14.83;;
46308;SDS011;32037;50.820;6.494;2022-08-19T11:53:49;14.57;;;13.27;;
46308;SDS011;32037;50.820;6.494;2022-08-19T11:56:18;15.80;;;14.20;;
46308;SDS011;32037;50.820;6.494;2022-08-19T11:58:48;15.43;;;13.83;;
46308;SDS011;32037;50.820;6.494;2022-08-19T12:01:20;12.40;;;11.30;;
46308;SDS011;32037;50.820;6.494;2022-08-19T12:03:50;13.47;;;12.17;;
46308;SDS011;32037;50.820;6.494;2022-08-19T12:06:21;13.73;;;12.53;;
46308;SDS011;32037;50.820;6.494;2022-08-19T12:08:52;12.03;;;10.93;;
46308;SDS011;32037;50.820;6.494;2022-08-19T12:11:21;13.03;;;11.93;;
46308;SDS011;32037;50.820;6.494;2022-08-19T12:13:51;12.93;;;11.70;;
46308;SDS011;32037;50.820;6.494;2022-08-19T12:16:22;14.27;;;12.87;;
46308;SDS011;32037;50.820;6.494;2022-08-19T12:18:54;11.97;;;10.80;;
46308;SDS011;32037;50.820;6.494;2022-08-19T12:21:25;13.40;;;12.20;;
46308;SDS011;32037;50.820;6.494;2022-08-19T12:23:55;12.43;;;11.43;;
46308;SDS011;32037;50.820;6.494;2022-08-19T12:26:26;13.37;;;12.13;;
46308;SDS011;32037;50.820;6.494;2022-08-19T12:28:58;12.57;;;11.47;;
46308;SDS011;32037;50.820;6.494;2022-08-19T12:31:29;11.37;;;10.37;;
46308;SDS011;32037;50.820;6.494;2022-08-19T12:33:58;10.60;;;9.70;;
46308;SDS011;32037;50.820;6.494;2022-08-19T12:36:28;12.37;;;11.27;;
46308;SDS011;32037;50.820;6.494;2022-08-19T12:38:58;13.10;;;11.90;;
46308;SDS011;32037;50.820;6.494;2022-08-19T12:41:27;12.03;;;10.83;;
46308;SDS011;32037;50.820;6.494;2022-08-19T12:43:55;11.10;;;10.10;;
46308;SDS011;32037;50.820;6.494;2022-08-19T12:46:26;11.90;;;10.80;;
46308;SDS011;32037;50.820;6.494;2022-08-19T12:48:57;13.30;;;10.70;;
46308;SDS011;32037;50.820;6.494;2022-08-19T12:51:31;13.10;;;11.80;;
46308;SDS011;32037;50.820;6.494;2022-08-19T12:54:00;11.23;;;10.27;;
46308;SDS011;32037;50.820;6.494;2022-08-19T12:56:31;11.30;;;10.40;;
46308;SDS011;32037;50.820;6.494;2022-08-19T12:59:01;10.47;;;9.57;;
46308;SDS011;32037;50.820;6.494;2022-08-19T13:01:30;12.00;;;10.90;;
46308;SDS011;32037;50.820;6.494;2022-08-19T13:04:00;13.00;;;10.60;;
46308;SDS011;32037;50.820;6.494;2022-08-19T13:06:28;11.67;;;10.67;;
46308;SDS011;32037;50.820;6.494;2022-08-19T13:08:56;11.67;;;10.57;;
46308;SDS011;32037;50.820;6.494;2022-08-19T13:11:25;11.80;;;10.50;;
46308;SDS011;32037;50.820;6.494;2022-08-19T13:13:58;12.40;;;11.20;;
46308;SDS011;32037;50.820;6.494;2022-08-19T13:16:28;11.33;;;10.07;;
46308;SDS011;32037;50.820;6.494;2022-08-19T13:18:56;11.37;;;10.37;;
46308;SDS011;32037;50.820;6.494;2022-08-19T13:21:26;11.87;;;10.67;;
46308;SDS011;32037;50.820;6.494;2022-08-19T13:23:56;11.47;;;10.47;;
46308;SDS011;32037;50.820;6.494;2022-08-19T13:26:25;11.63;;;10.73;;
46308;SDS011;32037;50.820;6.494;2022-08-19T13:28:53;10.70;;;9.70;;
46308;SDS011;32037;50.820;6.494;2022-08-19T13:31:39;10.43;;;9.43;;
46308;SDS011;32037;50.820;6.494;2022-08-19T13:34:27;11.23;;;10.10;;
46308;SDS011;32037;50.820;6.494;2022-08-19T13:36:59;9.70;;;8.83;;
46308;SDS011;32037;50.820;6.494;2022-08-19T13:39:33;11.47;;;10.30;;
46308;SDS011;32037;50.820;6.494;2022-08-19T13:42:03;11.17;;;10.17;;
46308;SDS011;32037;50.820;6.494;2022-08-19T13:44:32;10.30;;;9.40;;
46308;SDS011;32037;50.820;6.494;2022-08-19T13:47:01;8.87;;;8.17;;
46308;SDS011;32037;50.820;6.494;2022-08-19T13:49:33;10.60;;;9.63;;
46308;SDS011;32037;50.820;6.494;2022-08-19T13:52:04;8.87;;;8.07;;
46308;SDS011;32037;50.820;6.494;2022-08-19T13:54:33;8.43;;;7.63;;
46308;SDS011;32037;50.820;6.494;2022-08-19T13:57:01;9.47;;;8.53;;
46308;SDS011;32037;50.820;6.494;2022-08-19T13:59:30;7.90;;;7.10;;
46308;SDS011;32037;50.820;6.494;2022-08-19T14:01:59;8.80;;;8.00;;
46308;SDS011;32037;50.820;6.494;2022-08-19T14:04:28;8.40;;;7.60;;
46308;SDS011;32037;50.820;6.494;2022-08-19T14:06:56;8.43;;;7.63;;
46308;SDS011;32037;50.820;6.494;2022-08-19T14:09:26;7.90;;;7.20;;
46308;SDS011;32037;50.820;6.494;2022-08-19T14:11:54;8.20;;;7.40;;
46308;SDS011;32037;50.820;6.494;2022-08-19T14:14:24;13.33;;;8.57;;
46308;SDS011;32037;50.820;6.494;2022-08-19T14:16:53;7.23;;;6.57;;
46308;SDS011;32037;50.820;6.494;2022-08-19T14:19:21;7.10;;;6.40;;
46308;SDS011;32037;50.820;6.494;2022-08-19T14:21:55;7.03;;;5.97;;
46308;SDS011;32037;50.820;6.494;2022-08-19T14:24:25;6.57;;;5.97;;
46308;SDS011;32037;50.820;6.494;2022-08-19T14:26:54;6.88;;;6.18;;
46308;SDS011;32037;50.820;6.494;2022-08-19T14:29:22;6.53;;;5.80;;
46308;SDS011;32037;50.820;6.494;2022-08-19T14:31:51;6.37;;;5.77;;
46308;SDS011;32037;50.820;6.494;2022-08-19T14:34:19;5.30;;;4.80;;
46308;SDS011;32037;50.820;6.494;2022-08-19T14:36:48;6.03;;;5.47;;
46308;SDS011;32037;50.820;6.494;2022-08-19T14:39:17;6.13;;;5.17;;
46308;SDS011;32037;50.820;6.494;2022-08-19T14:41:47;6.70;;;4.93;;
46308;SDS011;32037;50.820;6.494;2022-08-19T14:44:15;5.33;;;4.83;;
46308;SDS011;32037;50.820;6.494;2022-08-19T14:46:43;4.53;;;4.13;;
46308;SDS011;32037;50.820;6.494;2022-08-19T14:49:15;4.43;;;4.03;;
46308;SDS011;32037;50.820;6.494;2022-08-19T14:51:44;5.00;;;4.60;;
46308;SDS011;32037;50.820;6.494;2022-08-19T14:54:13;4.43;;;4.03;;
46308;SDS011;32037;50.820;6.494;2022-08-19T14:56:41;5.03;;;4.63;;
46308;SDS011;32037;50.820;6.494;2022-08-19T14:59:11;4.50;;;4.10;;
46308;SDS011;32037;50.820;6.494;2022-08-19T15:01:40;4.17;;;3.80;;
46308;SDS011;32037;50.820;6.494;2022-08-19T15:04:08;4.60;;;4.20;;